createdAt,value
2018-09-02T00:00:12.105Z,19.57
2018-09-02T00:01:21.976Z,19.57
2018-09-02T00:02:31.817Z,19.65
2018-09-02T00:03:41.904Z,19.56
2018-09-02T00:04:52.003Z,19.57
2018-09-02T00:06:02.101Z,19.6
2018-09-02T00:07:12.167Z,19.63
2018-09-02T00:08:22.036Z,19.63
2018-09-02T00:09:32.114Z,19.64
2018-09-02T00:10:42.225Z,19.67
2018-09-02T00:11:52.308Z,19.78
2018-09-02T00:13:02.395Z,19.63
2018-09-02T00:14:12.499Z,19.65
2018-09-02T00:15:22.326Z,19.65
2018-09-02T00:16:32.410Z,19.61
2018-09-02T00:17:42.243Z,19.56
2018-09-02T00:18:52.325Z,19.67
2018-09-02T00:20:02.404Z,19.53
2018-09-02T00:21:12.250Z,19.68
2018-09-02T00:22:22.357Z,19.57
2018-09-02T00:23:32.169Z,19.61
2018-09-02T00:24:42.249Z,19.53
2018-09-02T00:25:52.335Z,19.56
2018-09-02T00:27:02.434Z,19.5
2018-09-02T00:28:12.512Z,19.56
2018-09-02T00:29:22.595Z,19.43
2018-09-02T00:30:32.434Z,19.45
2018-09-02T00:31:42.498Z,19.46
2018-09-02T00:32:52.348Z,19.46
2018-09-02T00:34:02.898Z,19.42
2018-09-02T00:35:13.040Z,19.46
2018-09-02T00:36:23.240Z,19.43
2018-09-02T00:37:33.057Z,19.47
2018-09-02T00:38:43.170Z,19.46
2018-09-02T00:39:53.258Z,19.47
2018-09-02T00:41:03.061Z,19.43
2018-09-02T00:42:13.151Z,19.49
2018-09-02T00:43:23.181Z,19.4
2018-09-02T00:44:33.253Z,19.49
2018-09-02T00:45:42.863Z,19.5
2018-09-02T00:46:52.963Z,19.49
2018-09-02T00:48:03.297Z,19.37
2018-09-02T00:49:13.389Z,19.45
2018-09-02T00:50:23.484Z,19.49
2018-09-02T00:51:33.573Z,19.47
2018-09-02T00:52:43.656Z,19.49
2018-09-02T00:53:53.470Z,19.5
2018-09-02T00:55:03.292Z,19.53
2018-09-02T00:56:13.362Z,19.53
2018-09-02T00:57:23.456Z,19.52
2018-09-02T00:58:33.597Z,19.43
2018-09-02T00:59:43.691Z,19.52
2018-09-02T01:00:53.806Z,19.45
2018-09-02T01:02:03.909Z,19.53
2018-09-02T01:03:14.059Z,19.46
2018-09-02T01:04:23.909Z,19.63
2018-09-02T01:05:33.986Z,19.52
2018-09-02T01:06:43.819Z,19.55
2018-09-02T01:07:53.906Z,19.52
2018-09-02T01:09:03.997Z,19.57
2018-09-02T01:10:14.097Z,19.55
2018-09-02T01:11:24.169Z,19.56
2018-09-02T01:12:34.274Z,19.5
2018-09-02T01:13:44.370Z,19.49
2018-09-02T01:14:54.563Z,19.53
2018-09-02T01:16:04.124Z,19.56
2018-09-02T01:17:13.929Z,19.55
2018-09-02T01:18:23.992Z,19.55
2018-09-02T01:19:34.059Z,19.56
2018-09-02T01:20:46.373Z,19.57
2018-09-02T01:21:56.677Z,19.67
2018-09-02T01:23:06.107Z,19.53
2018-09-02T01:24:16.185Z,19.55
2018-09-02T01:25:26.272Z,19.56
2018-09-02T01:26:35.879Z,19.47
2018-09-02T01:27:45.678Z,19.5
2018-09-02T01:28:55.743Z,19.55
2018-09-02T01:30:05.571Z,19.5
2018-09-02T01:31:15.640Z,19.5
2018-09-02T01:32:25.757Z,19.56
2018-09-02T01:33:35.570Z,19.46
2018-09-02T01:34:45.651Z,19.53
2018-09-02T01:35:55.748Z,19.47
2018-09-02T01:37:05.825Z,19.45
2018-09-02T01:38:15.953Z,19.49
2018-09-02T01:39:26.046Z,19.4
2018-09-02T01:40:36.128Z,19.43
2018-09-02T01:41:46.198Z,19.49
2018-09-02T01:42:56.277Z,19.43
2018-09-02T01:48:52.547Z,19.4
2018-09-02T01:50:02.615Z,19.38
2018-09-02T01:51:12.709Z,19.37
2018-09-02T01:52:22.798Z,19.45
2018-09-02T01:53:32.908Z,19.37
2018-09-02T01:54:42.727Z,19.43
2018-09-02T01:55:52.820Z,19.32
2018-09-02T01:57:02.905Z,19.31
2018-09-02T01:58:12.735Z,19.25
2018-09-02T01:59:22.816Z,19.24
2018-09-02T02:00:32.915Z,19.16
2018-09-02T02:01:42.972Z,19.13
2018-09-02T02:02:52.874Z,19.24
2018-09-02T02:04:02.825Z,19.15
2018-09-02T02:05:12.455Z,19.19
2018-09-02T02:06:22.562Z,19.09
2018-09-02T02:07:32.630Z,19.15
2018-09-02T02:08:42.736Z,19.12
2018-09-02T02:09:52.300Z,19.07
2018-09-02T02:11:02.622Z,19.07
2018-09-02T02:12:12.508Z,19.05
2018-09-02T02:13:22.605Z,19.13
2018-09-02T02:14:32.687Z,19.13
2018-09-02T02:15:42.766Z,19.1
2018-09-02T02:16:52.856Z,19.1
2018-09-02T02:18:02.868Z,19.09
2018-09-02T02:19:13.249Z,19.13
2018-09-02T02:20:23.316Z,19.12
2018-09-02T02:21:33.394Z,19.06
2018-09-02T02:22:43.472Z,19.13
2018-09-02T02:23:53.558Z,19.13
2018-09-02T02:25:03.631Z,19.24
2018-09-02T02:26:13.694Z,19.25
2018-09-02T02:27:23.783Z,19.25
2018-09-02T02:28:33.858Z,19.27
2018-09-02T02:29:43.941Z,19.23
2018-09-02T02:30:54.038Z,19.19
2018-09-02T02:32:03.869Z,19.24
2018-09-02T02:33:13.702Z,19.25
2018-09-02T02:34:23.572Z,19.17
2018-09-02T02:35:33.645Z,19.25
2018-09-02T02:36:43.724Z,19.27
2018-09-02T02:37:53.808Z,19.31
2018-09-02T02:39:03.873Z,19.32
2018-09-02T02:40:13.944Z,19.35
2018-09-02T02:41:24.044Z,19.34
2018-09-02T02:42:34.142Z,19.27
2018-09-02T02:43:43.956Z,19.19
2018-09-02T02:44:53.777Z,19.25
2018-09-02T02:46:03.901Z,19.27
2018-09-02T02:47:13.990Z,19.24
2018-09-02T02:48:23.545Z,19.16
2018-09-02T02:49:33.637Z,19.23
2018-09-02T02:50:43.436Z,19.24
2018-09-02T02:51:53.559Z,19.19
2018-09-02T02:53:03.371Z,19.23
2018-09-02T02:54:13.458Z,19.1
2018-09-02T02:55:23.268Z,19.19
2018-09-02T02:56:33.346Z,19.09
2018-09-02T02:57:43.219Z,19.09
2018-09-02T02:58:53.028Z,19.17
2018-09-02T03:00:03.100Z,19.17
2018-09-02T03:01:13.198Z,19.23
2018-09-02T03:02:23.025Z,19.23
2018-09-02T03:35:00.602Z,17.63
2018-09-02T03:36:10.423Z,17.54
2018-09-02T03:37:20.242Z,17.57
2018-09-02T03:38:30.339Z,17.5
2018-09-02T03:39:40.470Z,17.63
2018-09-02T03:40:50.344Z,17.65
2018-09-02T03:42:00.161Z,17.71
2018-09-02T03:43:09.987Z,17.84
2018-09-02T03:44:19.814Z,17.84
2018-09-02T03:45:29.624Z,18.05
2018-09-02T03:46:39.751Z,18.17
2018-09-02T03:47:49.548Z,18.31
2018-09-02T03:48:59.623Z,18.26
2018-09-02T03:50:09.447Z,18.42
2018-09-02T03:51:19.265Z,18.5
2018-09-02T03:52:29.451Z,18.6
2018-09-02T03:53:39.008Z,18.68
2018-09-02T03:54:49.118Z,18.75
2018-09-02T03:55:59.533Z,18.79
2018-09-02T03:57:09.623Z,18.93
2018-09-02T03:58:19.814Z,18.94
2018-09-02T03:59:29.639Z,18.89
2018-09-02T04:00:39.716Z,18.97
2018-09-02T04:01:49.827Z,19.07
2018-09-02T04:02:59.923Z,19.07
2018-09-02T04:04:10.046Z,19.1
2018-09-02T04:05:20.149Z,19.1
2018-09-02T04:06:30.476Z,19.07
2018-09-02T04:07:40.557Z,19.23
2018-09-02T04:08:50.671Z,19.17
2018-09-02T04:10:00.533Z,19.24
2018-09-02T04:11:10.688Z,19.27
2018-09-02T04:12:20.908Z,19.19
2018-09-02T04:13:31.002Z,19.25
2018-09-02T04:14:41.068Z,19.24
2018-09-02T04:15:50.894Z,19.23
2018-09-02T04:17:00.972Z,19.24
2018-09-02T04:18:10.800Z,19.27
2018-09-02T04:19:20.897Z,19.19
2018-09-02T04:20:30.979Z,19.19
2018-09-02T04:21:41.106Z,19.15
2018-09-02T04:22:51.210Z,19.23
2018-09-02T04:24:01.289Z,19.15
2018-09-02T04:25:11.351Z,19.09
2018-09-02T04:26:21.180Z,19.09
2018-09-02T04:27:31.051Z,19.12
2018-09-02T04:28:41.125Z,19.23
2018-09-02T04:29:51.222Z,19.2
2018-09-02T04:31:01.296Z,19.2
2018-09-02T04:32:11.387Z,19.23
2018-09-02T04:33:21.260Z,19.28
2018-09-02T04:34:31.383Z,19.24
2018-09-02T04:35:41.458Z,19.23
2018-09-02T04:36:51.550Z,19.3
2018-09-02T04:38:01.632Z,19.2
2018-09-02T04:39:11.721Z,19.27
2018-09-02T04:40:21.799Z,19.23
2018-09-02T04:41:31.880Z,19.3
2018-09-02T04:42:41.967Z,19.23
2018-09-02T04:43:51.538Z,19.25
2018-09-02T04:45:01.734Z,19.25
2018-09-02T04:46:11.958Z,19.24
2018-09-02T04:47:22.052Z,19.27
2018-09-02T04:48:32.137Z,19.27
2018-09-02T04:49:42.224Z,19.3
2018-09-02T04:50:52.372Z,19.34
2018-09-02T04:52:02.198Z,19.43
2018-09-02T04:53:12.275Z,19.4
2018-09-02T04:54:22.592Z,19.55
2018-09-02T04:55:33.152Z,19.55
2018-09-02T04:56:43.249Z,19.55
2018-09-02T04:57:53.533Z,19.53
2018-09-02T04:59:03.360Z,19.65
2018-09-02T05:00:13.368Z,19.57
2018-09-02T05:01:23.680Z,19.6
2018-09-02T05:02:33.800Z,19.65
2018-09-02T05:03:43.351Z,19.61
2018-09-02T05:04:53.173Z,19.68
2018-09-02T05:06:03.270Z,19.64
2018-09-02T05:07:13.342Z,19.64
2018-09-02T05:08:23.158Z,19.67
2018-09-02T05:09:32.984Z,19.64
2018-09-02T05:10:42.804Z,19.63
2018-09-02T05:11:52.638Z,19.61
2018-09-02T05:13:02.453Z,19.68
2018-09-02T05:14:13.147Z,19.63
2018-09-02T05:15:23.444Z,19.55
2018-09-02T05:16:33.531Z,19.61
2018-09-02T05:17:43.616Z,19.64
2018-09-02T05:18:53.674Z,19.67
2018-09-02T05:20:03.779Z,19.63
2018-09-02T05:21:13.857Z,19.65
2018-09-02T05:22:23.707Z,19.74
2018-09-02T05:23:33.790Z,19.74
2018-09-02T05:24:43.904Z,19.85
2018-09-02T05:25:54.044Z,19.83
2018-09-02T05:27:04.152Z,19.97
2018-09-02T05:28:13.972Z,20
2018-09-02T05:29:24.061Z,20.08
2018-09-02T05:30:33.616Z,20.1
2018-09-02T05:31:43.732Z,20.1
2018-09-02T05:32:53.812Z,20.16
2018-09-02T05:34:03.876Z,20.2
2018-09-02T05:35:13.702Z,20.27
2018-09-02T05:36:23.526Z,20.35
2018-09-02T05:37:33.608Z,20.58
2018-09-02T05:38:43.667Z,20.58
2018-09-02T05:39:53.770Z,20.66
2018-09-02T05:41:03.828Z,20.57
2018-09-02T05:42:13.903Z,20.53
2018-09-02T05:43:23.987Z,20.51
2018-09-02T05:44:33.558Z,20.44
2018-09-02T05:45:43.649Z,20.35
2018-09-02T05:46:53.503Z,20.42
2018-09-02T05:48:03.582Z,20.29
2018-09-02T05:49:13.709Z,20.4
2018-09-02T05:50:24.109Z,20.35
2018-09-02T05:51:33.931Z,20.37
2018-09-02T05:52:44.025Z,20.46
2018-09-02T05:53:53.851Z,20.51
2018-09-02T05:55:03.983Z,20.67
2018-09-02T05:56:14.074Z,20.86
2018-09-02T05:57:23.953Z,21.08
2018-09-02T05:58:34.167Z,21.22
2018-09-02T05:59:44.274Z,21.36
2018-09-02T06:00:54.361Z,21.37
2018-09-02T06:02:04.197Z,21.59
2018-09-02T06:03:14.040Z,21.82
2018-09-02T06:04:24.115Z,22.23
2018-09-02T06:05:34.193Z,22.15
2018-09-02T06:06:44.284Z,21.93
2018-09-02T06:07:54.094Z,21.85
2018-09-02T06:09:03.919Z,21.78
2018-09-02T06:10:14.028Z,21.71
2018-09-02T06:11:23.852Z,21.67
2018-09-02T06:12:34.035Z,21.66
2018-09-02T06:13:44.110Z,21.76
2018-09-02T06:14:54.187Z,21.86
2018-09-02T06:16:04.066Z,21.89
2018-09-02T06:17:14.311Z,21.92
2018-09-02T06:18:24.629Z,21.94
2018-09-02T06:19:34.707Z,21.94
2018-09-02T06:20:44.264Z,22.27
2018-09-02T06:21:54.349Z,22.46
2018-09-02T06:23:04.426Z,22.61
2018-09-02T06:24:14.522Z,22.75
2018-09-02T06:25:24.341Z,23.12
2018-09-02T06:26:34.644Z,23.37
2018-09-02T06:27:44.464Z,23.63
2018-09-02T06:28:54.540Z,24.03
2018-09-02T06:30:04.826Z,24.27
2018-09-02T06:31:15.189Z,24.48
2018-09-02T06:32:25.501Z,24.74
2018-09-02T06:33:35.575Z,24.9
2018-09-02T06:34:45.417Z,24.97
2018-09-02T06:35:55.254Z,25.2
2018-09-02T06:37:05.395Z,25.12
2018-09-02T06:38:15.479Z,25.27
2018-09-02T06:39:25.750Z,25.15
2018-09-02T06:40:35.733Z,25.14
2018-09-02T06:41:45.565Z,25.12
2018-09-02T06:42:55.771Z,25.14
2018-09-02T06:44:05.853Z,25.14
2018-09-02T06:45:16.154Z,25.12
2018-09-02T06:46:25.969Z,24.87
2018-09-02T06:47:35.776Z,24.61
2018-09-02T06:48:45.858Z,24.45
2018-09-02T06:49:55.954Z,24.27
2018-09-02T06:51:06.034Z,24.12
2018-09-02T06:52:15.597Z,23.99
2018-09-02T06:53:25.713Z,23.93
2018-09-02T06:54:35.808Z,23.97
2018-09-02T06:55:45.909Z,24
2018-09-02T06:56:55.989Z,24.04
2018-09-02T06:58:06.072Z,24.03
2018-09-02T06:59:16.164Z,24.08
2018-09-02T07:00:26.247Z,24.07
2018-09-02T07:01:36.350Z,23.97
2018-09-02T07:02:46.424Z,23.85
2018-09-02T07:03:56.517Z,23.81
2018-09-02T07:05:06.668Z,23.77
2018-09-02T07:06:17.820Z,23.74
2018-09-02T07:07:27.796Z,23.67
2018-09-02T07:08:38.286Z,23.7
2018-09-02T07:09:48.391Z,23.7
2018-09-02T07:10:58.225Z,23.74
2018-09-02T07:12:08.373Z,23.85
2018-09-02T07:13:18.219Z,24.03
2018-09-02T07:14:28.450Z,24.18
2018-09-02T07:15:38.263Z,24.3
2018-09-02T07:16:48.428Z,24.59
2018-09-02T07:17:58.556Z,24.74
2018-09-02T07:19:08.668Z,25.05
2018-09-02T07:20:19.533Z,25.15
2018-09-02T07:21:29.614Z,25.17
2018-09-02T07:22:39.707Z,25.12
2018-09-02T07:23:49.810Z,25.22
2018-09-02T07:24:59.888Z,25.27
2018-09-02T07:26:09.962Z,25.33
2018-09-02T07:27:20.052Z,25.44
2018-09-02T07:28:29.892Z,25.38
2018-09-02T07:29:40.045Z,25.45
2018-09-02T07:30:50.126Z,25.33
2018-09-02T07:31:59.978Z,25.26
2018-09-02T07:33:10.086Z,25.29
2018-09-02T07:34:19.926Z,25.23
2018-09-02T07:35:30.033Z,25.23
2018-09-02T07:36:40.136Z,25.29
2018-09-02T07:37:50.224Z,25.29
2018-09-02T07:39:00.374Z,25.3
2018-09-02T07:40:10.485Z,25.38
2018-09-02T07:41:20.643Z,25.45
2018-09-02T07:42:30.737Z,25.56
2018-09-02T07:43:41.102Z,25.64
2018-09-02T07:44:51.165Z,25.79
2018-09-02T07:46:01.268Z,26.07
2018-09-02T07:47:11.410Z,26.42
2018-09-02T07:48:21.502Z,26.78
2018-09-02T07:49:31.658Z,26.97
2018-09-02T07:50:41.778Z,27.01
2018-09-02T07:51:51.882Z,27.05
2018-09-02T07:53:01.974Z,27.11
2018-09-02T07:54:12.061Z,27.24
2018-09-02T07:55:22.143Z,27.21
2018-09-02T07:56:31.967Z,27.13
2018-09-02T07:57:42.038Z,27.06
2018-09-02T07:58:52.182Z,26.72
2018-09-02T08:00:02.027Z,26.42
2018-09-02T08:01:12.117Z,26.37
2018-09-02T08:02:22.203Z,26.26
2018-09-02T08:03:32.288Z,26.24
2018-09-02T08:04:42.377Z,26.34
2018-09-02T08:05:52.221Z,26.54
2018-09-02T08:07:02.323Z,26.97
2018-09-02T08:08:12.427Z,27.15
2018-09-02T08:09:22.520Z,27.23
2018-09-02T08:10:32.145Z,27.13
2018-09-02T08:11:42.234Z,27.01
2018-09-02T08:12:52.325Z,27.01
2018-09-02T08:14:02.984Z,26.86
2018-09-02T08:15:12.808Z,26.74
2018-09-02T08:16:22.627Z,26.78
2018-09-02T08:17:32.451Z,26.59
2018-09-02T08:18:42.023Z,26.56
2018-09-02T08:19:51.871Z,26.45
2018-09-02T08:21:02.380Z,26.34
2018-09-02T08:22:12.003Z,26.38
2018-09-02T08:23:22.093Z,26.45
2018-09-02T08:24:32.245Z,26.41
2018-09-02T08:25:42.334Z,26.49
2018-09-02T08:26:52.575Z,26.44
2018-09-02T08:28:02.983Z,26.57
2018-09-02T08:29:13.082Z,26.64
2018-09-02T08:30:22.904Z,26.93
2018-09-02T08:31:32.745Z,26.94
2018-09-02T08:32:42.824Z,27.06
2018-09-02T08:33:52.670Z,27.12
2018-09-02T08:35:02.515Z,27.05
2018-09-02T08:36:12.337Z,26.94
2018-09-02T08:37:22.435Z,26.71
2018-09-02T08:38:32.531Z,26.56
2018-09-02T08:39:42.747Z,26.41
2018-09-02T08:40:52.857Z,26.34
2018-09-02T08:42:02.958Z,26.3
2018-09-02T08:43:13.110Z,26.3
2018-09-02T08:44:23.666Z,26.27
2018-09-02T08:45:34.018Z,26.37
2018-09-02T08:46:44.143Z,26.69
2018-09-02T08:47:53.995Z,26.9
2018-09-02T08:49:04.209Z,27.09
2018-09-02T08:50:14.327Z,27.41
2018-09-02T08:51:24.537Z,27.66
2018-09-02T08:52:34.895Z,27.9
2018-09-02T08:53:44.740Z,28.05
2018-09-02T08:54:54.862Z,28.12
2018-09-02T08:56:05.130Z,27.93
2018-09-02T08:57:15.513Z,27.86
2018-09-02T08:58:25.649Z,27.66
2018-09-02T08:59:35.765Z,27.51
2018-09-02T09:00:45.874Z,27.42
2018-09-02T09:01:55.965Z,27.24
2018-09-02T09:03:06.318Z,27.12
2018-09-02T09:04:16.179Z,27.05
2018-09-02T09:05:26.025Z,26.91
2018-09-02T09:06:36.126Z,26.99
2018-09-02T09:07:47.074Z,26.86
2018-09-02T09:08:58.723Z,26.79
2018-09-02T09:10:09.959Z,26.72
2018-09-02T09:11:20.054Z,26.72
2018-09-02T09:12:30.707Z,26.79
2018-09-02T09:13:40.823Z,27
2018-09-02T09:15:10.353Z,27.06
2018-09-02T09:16:20.688Z,27.01
2018-09-02T09:17:30.961Z,26.99
2018-09-02T09:18:41.064Z,26.82
2018-09-02T09:19:51.160Z,26.57
2018-09-02T09:21:01.257Z,26.41
2018-09-02T09:22:11.567Z,26.32
2018-09-02T09:23:21.561Z,26.16
2018-09-02T09:24:31.690Z,26.17
2018-09-02T09:25:41.812Z,26.3
2018-09-02T09:26:51.931Z,26.26
2018-09-02T09:28:01.524Z,26.52
2018-09-02T09:29:11.602Z,26.72
2018-09-02T09:30:21.752Z,26.79
2018-09-02T09:31:31.914Z,26.76
2018-09-02T09:32:42.004Z,26.81
2018-09-02T09:33:52.123Z,26.75
2018-09-02T09:35:02.210Z,26.97
2018-09-02T09:36:12.341Z,26.91
2018-09-02T09:37:22.499Z,27.11
2018-09-02T09:38:32.361Z,27.31
2018-09-02T09:39:42.492Z,27.49
2018-09-02T09:40:52.322Z,27.64
2018-09-02T09:42:02.449Z,27.65
2018-09-02T09:43:12.624Z,27.87
2018-09-02T09:44:22.752Z,27.83
2018-09-02T09:45:32.925Z,27.71
2018-09-02T09:46:43.057Z,27.42
2018-09-02T09:47:52.895Z,26.97
2018-09-02T09:49:02.979Z,26.76
2018-09-02T09:50:13.133Z,26.38
2018-09-02T09:51:23.228Z,26.19
2018-09-02T09:52:33.385Z,26.04
2018-09-02T09:53:43.516Z,25.85
2018-09-02T09:54:53.619Z,25.69
2018-09-02T09:56:03.777Z,25.69
2018-09-02T09:57:13.934Z,25.45
2018-09-02T09:58:24.300Z,25.39
2018-09-02T09:59:34.146Z,25.19
2018-09-02T10:00:44.010Z,25.12
2018-09-02T10:01:54.132Z,24.96
2018-09-02T10:03:04.334Z,24.78
2018-09-02T10:04:14.193Z,24.75
2018-09-02T10:05:24.290Z,24.49
2018-09-02T10:06:33.609Z,24.33
2018-09-02T10:07:43.720Z,24.21
2018-09-02T10:08:53.810Z,24.07
2018-09-02T10:10:04.044Z,23.99
2018-09-02T10:11:14.135Z,23.89
2018-09-02T10:12:24.235Z,23.85
2018-09-02T10:13:34.345Z,23.77
2018-09-02T10:14:44.450Z,23.63
2018-09-02T10:15:54.553Z,23.7
2018-09-02T10:17:04.146Z,23.66
2018-09-02T10:18:14.924Z,23.6
2018-09-02T10:19:25.058Z,23.56
2018-09-02T10:20:34.676Z,23.48
2018-09-02T10:21:44.789Z,23.55
2018-09-02T10:22:54.377Z,23.62
2018-09-02T10:24:04.473Z,23.75
2018-09-02T10:25:14.349Z,23.89
2018-09-02T10:26:24.466Z,23.94
2018-09-02T10:27:35.260Z,24.22
2018-09-02T10:28:45.384Z,24.45
2018-09-02T10:29:55.488Z,24.7
2018-09-02T10:31:05.349Z,24.67
2018-09-02T10:32:15.455Z,24.67
2018-09-02T10:33:25.775Z,24.67
2018-09-02T10:34:36.693Z,24.58
2018-09-02T10:35:47.393Z,24.59
2018-09-02T10:36:57.518Z,24.59
2018-09-02T10:38:07.665Z,24.45
2018-09-02T10:39:17.521Z,24.27
2018-09-02T10:40:27.637Z,24.03
2018-09-02T10:41:38.118Z,23.94
2018-09-02T10:42:48.250Z,23.7
2018-09-02T10:43:58.425Z,23.64
2018-09-02T10:45:08.585Z,23.44
2018-09-02T10:46:18.725Z,23.28
2018-09-02T10:47:28.873Z,23.18
2018-09-02T10:48:38.730Z,23.1
2018-09-02T10:49:49.267Z,23.09
2018-09-02T10:50:59.251Z,23.07
2018-09-02T10:52:09.396Z,23.14
2018-09-02T10:53:19.547Z,23.01
2018-09-02T10:54:29.684Z,22.97
2018-09-02T10:55:39.588Z,22.97
2018-09-02T10:56:49.492Z,22.91
2018-09-02T10:57:59.600Z,23
2018-09-02T10:59:09.420Z,22.88
2018-09-02T11:00:19.548Z,23
2018-09-02T11:01:29.382Z,22.99
2018-09-02T11:02:39.559Z,22.97
2018-09-02T11:03:49.686Z,23.04
2018-09-02T11:04:59.565Z,23.07
2018-09-02T11:06:09.681Z,23.04
2018-09-02T11:07:19.270Z,23.06
2018-09-02T11:08:29.455Z,23.1
2018-09-02T11:09:39.432Z,23.04
2018-09-02T11:10:49.768Z,22.97
2018-09-02T11:11:59.379Z,22.91
2018-09-02T11:13:09.687Z,22.79
2018-09-02T11:14:20.373Z,22.73
2018-09-02T11:15:30.482Z,22.66
2018-09-02T11:16:40.600Z,22.59
2018-09-02T11:17:50.714Z,22.45
2018-09-02T11:19:00.825Z,22.39
2018-09-02T11:20:10.759Z,22.33
2018-09-02T11:21:20.615Z,22.18
2018-09-02T11:22:30.461Z,22.26
2018-09-02T11:23:40.593Z,22.27
2018-09-02T11:24:50.696Z,22.27
2018-09-02T11:26:00.883Z,22.24
2018-09-02T11:27:10.771Z,22.08
2018-09-02T11:28:20.883Z,22
2018-09-02T11:29:30.999Z,21.89
2018-09-02T11:30:41.118Z,21.83
2018-09-02T11:31:50.789Z,21.89
2018-09-02T11:33:00.911Z,21.76
2018-09-02T11:34:11.857Z,21.73
2018-09-02T11:35:22.236Z,21.66
2018-09-02T11:36:32.312Z,21.64
2018-09-02T11:37:42.187Z,21.67
2018-09-02T11:38:52.279Z,21.62
2018-09-02T11:40:02.372Z,21.58
2018-09-02T11:41:12.214Z,21.53
2018-09-02T11:42:22.330Z,21.64
2018-09-02T11:43:32.453Z,21.62
2018-09-02T11:44:42.581Z,21.71
2018-09-02T11:45:52.735Z,21.77
2018-09-02T11:47:03.693Z,21.71
2018-09-02T11:48:13.848Z,21.71
2018-09-02T11:49:24.068Z,21.71
2018-09-02T11:50:34.225Z,21.56
2018-09-02T11:51:44.443Z,21.64
2018-09-02T11:52:54.589Z,21.46
2018-09-02T11:54:04.504Z,21.53
2018-09-02T11:55:14.682Z,21.46
2018-09-02T11:56:24.795Z,21.36
2018-09-02T11:57:34.713Z,21.34
2018-09-02T11:58:45.049Z,21.37
2018-09-02T11:59:55.177Z,21.22
2018-09-02T12:01:06.777Z,21.22
2018-09-02T12:02:16.889Z,21.37
2018-09-02T12:03:27.039Z,21.34
2018-09-02T12:04:37.178Z,21.27
2018-09-02T12:05:47.220Z,21.21
2018-09-02T12:06:57.357Z,21.27
2018-09-02T12:08:07.464Z,21.22
2018-09-02T12:09:17.580Z,21.33
2018-09-02T12:10:27.515Z,21.41
2018-09-02T12:11:37.810Z,21.55
2018-09-02T12:12:47.742Z,21.61
2018-09-02T12:13:58.068Z,21.82
2018-09-02T12:15:08.053Z,21.8
2018-09-02T12:16:17.941Z,21.86
2018-09-02T12:17:28.047Z,21.93
2018-09-02T12:18:37.905Z,21.97
2018-09-02T12:19:47.980Z,22.12
2018-09-02T12:20:58.099Z,22.16
2018-09-02T12:22:08.629Z,22.42
2018-09-02T12:23:18.481Z,22.52
2018-09-02T12:24:28.577Z,22.49
2018-09-02T12:25:38.681Z,22.44
2018-09-02T12:26:48.792Z,22.42
2018-09-02T12:27:58.913Z,22.26
2018-09-02T12:29:09.013Z,22.24
2018-09-02T12:30:19.188Z,22.26
2018-09-02T12:31:29.484Z,22.07
2018-09-02T12:32:39.783Z,21.94
2018-09-02T12:33:49.651Z,21.82
2018-09-02T12:34:59.747Z,21.73
2018-09-02T12:36:09.924Z,21.62
2018-09-02T12:37:19.762Z,21.59
2018-09-02T12:38:29.616Z,21.55
2018-09-02T12:39:39.481Z,21.52
2018-09-02T12:40:49.306Z,21.49
2018-09-02T12:41:59.211Z,21.51
2018-09-02T12:43:09.454Z,21.46
2018-09-02T12:44:19.541Z,21.51
2018-09-02T12:45:29.667Z,21.53
2018-09-02T12:46:39.513Z,21.58
2018-09-02T12:47:50.009Z,21.56
2018-09-02T12:49:00.727Z,21.59
2018-09-02T12:50:10.821Z,21.67
2018-09-02T12:51:20.650Z,21.82
2018-09-02T12:52:30.765Z,22.15
2018-09-02T12:53:40.899Z,22.46
2018-09-02T12:54:51.275Z,22.79
2018-09-02T12:56:01.371Z,23.07
2018-09-02T12:57:11.496Z,23.25
2018-09-02T12:58:21.627Z,23.35
2018-09-02T12:59:31.745Z,23.53
2018-09-02T13:00:41.578Z,23.66
2018-09-02T13:01:51.471Z,23.66
2018-09-02T13:03:01.480Z,23.66
2018-09-02T13:04:11.620Z,23.67
2018-09-02T13:05:21.778Z,23.64
2018-09-02T13:06:31.630Z,23.56
2018-09-02T13:07:41.737Z,23.56
2018-09-02T13:08:51.568Z,23.4
2018-09-02T13:10:01.676Z,23.18
2018-09-02T13:11:11.819Z,22.97
2018-09-02T13:12:22.184Z,22.64
2018-09-02T13:13:32.290Z,22.49
2018-09-02T13:14:42.388Z,22.22
2018-09-02T13:15:52.231Z,21.94
2018-09-02T13:17:02.351Z,21.92
2018-09-02T13:18:12.537Z,21.82
2018-09-02T13:19:22.664Z,21.61
2018-09-02T13:20:32.511Z,21.61
2018-09-02T13:21:42.648Z,21.52
2018-09-02T13:22:52.496Z,21.46
2018-09-02T13:24:03.496Z,21.45
2018-09-02T13:25:13.405Z,21.36
2018-09-02T13:26:23.499Z,21.36
2018-09-02T13:27:33.353Z,21.33
2018-09-02T13:28:43.004Z,21.34
2018-09-02T13:29:53.128Z,21.27
2018-09-02T13:31:03.467Z,21.25
2018-09-02T13:32:13.571Z,21.19
2018-09-02T13:33:23.685Z,21.18
2018-09-02T13:34:33.283Z,21.16
2018-09-02T13:35:43.404Z,21.19
2018-09-02T13:36:53.740Z,21.22
2018-09-02T13:38:03.551Z,21.19
2018-09-02T13:39:13.688Z,21.19
2018-09-02T13:40:24.257Z,21.33
2018-09-02T13:41:34.886Z,21.3
2018-09-02T13:42:44.721Z,21.33
2018-09-02T13:43:54.037Z,21.36
2018-09-02T13:45:04.216Z,21.38
2018-09-02T13:46:14.360Z,21.41
2018-09-02T13:47:23.957Z,21.46
2018-09-02T13:48:34.001Z,21.59
2018-09-02T13:49:44.145Z,21.58
2018-09-02T13:50:54.247Z,21.7
2018-09-02T13:52:04.334Z,21.71
2018-09-02T13:53:14.448Z,21.85
2018-09-02T13:54:24.608Z,21.86
2018-09-02T13:55:34.720Z,21.78
2018-09-02T13:56:45.051Z,21.8
2018-09-02T13:57:55.135Z,21.76
2018-09-02T13:59:05.606Z,21.7
2018-09-02T14:00:15.714Z,21.73
2018-09-02T14:01:25.815Z,21.61
2018-09-02T14:02:35.921Z,21.61
2018-09-02T14:03:46.037Z,21.64
2018-09-02T14:04:56.140Z,21.61
2018-09-02T14:06:06.230Z,21.71
2018-09-02T14:07:15.800Z,21.73
2018-09-02T14:08:25.825Z,21.74
2018-09-02T14:09:35.668Z,21.67
2018-09-02T14:10:45.776Z,21.7
2018-09-02T14:11:55.611Z,21.59
2018-09-02T14:13:05.948Z,21.62
2018-09-02T14:14:16.057Z,21.66
2018-09-02T14:15:26.271Z,21.58
2018-09-02T14:16:36.118Z,21.56
2018-09-02T14:17:46.340Z,21.58
2018-09-02T14:18:56.579Z,21.58
2018-09-02T14:20:06.846Z,21.51
2018-09-02T14:21:17.296Z,21.45
2018-09-02T14:22:27.307Z,21.52
2018-09-02T14:23:37.320Z,21.41
2018-09-02T14:24:47.652Z,21.34
2018-09-02T14:25:57.678Z,21.33
2018-09-02T14:27:08.180Z,21.21
2018-09-02T14:28:18.762Z,21.22
2018-09-02T14:29:29.305Z,21.18
2018-09-02T14:30:39.727Z,21.25
2018-09-02T14:31:50.240Z,21.22
2018-09-02T14:33:00.966Z,21.23
2018-09-02T14:34:10.974Z,21.23
2018-09-02T14:35:20.848Z,21.25
2018-09-02T14:36:30.955Z,21.27
2018-09-02T14:37:41.038Z,21.25
2018-09-02T14:38:51.119Z,21.28
2018-09-02T14:40:01.247Z,21.33
2018-09-02T14:41:11.081Z,21.3
2018-09-02T14:42:21.209Z,21.34
2018-09-02T14:43:31.045Z,21.36
2018-09-02T14:44:41.164Z,21.45
2018-09-02T14:45:51.294Z,21.46
2018-09-02T14:47:01.116Z,21.55
2018-09-02T14:48:11.242Z,21.59
2018-09-02T14:49:21.369Z,21.64
2018-09-02T14:50:31.501Z,21.71
2018-09-02T14:51:41.361Z,21.85
2018-09-02T14:52:51.466Z,21.85
2018-09-02T14:54:01.593Z,21.85
2018-09-02T14:55:11.451Z,21.8
2018-09-02T14:56:21.024Z,21.71
2018-09-02T14:57:30.857Z,21.56
2018-09-02T14:58:40.952Z,21.61
2018-09-02T14:59:51.014Z,21.52
2018-09-02T15:01:01.108Z,21.48
2018-09-02T15:02:10.948Z,21.41
2018-09-02T15:03:21.075Z,21.36
2018-09-02T15:04:30.933Z,21.18
2018-09-02T15:05:41.044Z,21.06
2018-09-02T15:06:51.147Z,20.93
2018-09-02T15:08:01.534Z,20.86
2018-09-02T15:09:11.651Z,20.79
2018-09-02T15:10:21.739Z,20.81
2018-09-02T15:11:32.151Z,20.79
2018-09-02T15:12:42.421Z,20.78
2018-09-02T15:13:52.563Z,20.83
2018-09-02T15:15:02.347Z,20.9
2018-09-02T15:16:12.452Z,20.97
2018-09-02T15:17:22.552Z,21.13
2018-09-02T15:18:32.665Z,21.21
2018-09-02T15:19:42.787Z,21.4
2018-09-02T15:20:52.365Z,21.61
2018-09-02T15:22:02.509Z,21.8
2018-09-02T15:23:12.612Z,21.99
2018-09-02T15:24:22.747Z,22.09
2018-09-02T15:25:32.857Z,22.14
2018-09-02T15:26:42.699Z,22.26
2018-09-02T15:27:52.543Z,22.16
2018-09-02T15:29:03.341Z,22.29
2018-09-02T15:30:13.430Z,22.38
2018-09-02T15:31:23.305Z,22.54
2018-09-02T15:32:33.462Z,22.63
2018-09-02T15:33:43.805Z,22.7
2018-09-02T15:34:53.631Z,22.78
2018-09-02T15:36:03.769Z,23
2018-09-02T15:37:13.860Z,23.04
2018-09-02T15:38:23.744Z,23.14
2018-09-02T15:39:33.731Z,23.25
2018-09-02T15:40:44.110Z,23.25
2018-09-02T15:41:54.438Z,23.22